Terminal Aerodrome Forecast
Issued by NWS

Home | Current Version | Previous Version | Text Only | Print | Product List | Glossary On
Versions: 1 2 3 4 5 6 7 8 9 10 11 12
641
FTUS41 KBTV 290540
TAFMSS
TAF
KMSS 290540Z 2906/3006 00000KT 1SM BR SCT001 SCT090
     FM291200 01006KT P6SM FEW200 SCT250
     FM300100 35004KT P6SM FEW200=

USA.gov is the U.S. government's official web portal to all federal, state and local government web resources and services.